createdAt,value
2018-06-23T00:02:23.995Z,86.60
2018-06-23T00:04:52.326Z,86.30
2018-06-23T00:07:20.654Z,86.60
2018-06-23T00:09:48.994Z,86.80
2018-06-23T00:12:17.326Z,86.90
2018-06-23T00:14:45.677Z,87.00
2018-06-23T00:17:14.026Z,86.90
2018-06-23T00:19:42.363Z,87.10
2018-06-23T00:22:10.707Z,87.20
2018-06-23T00:24:39.046Z,87.40
2018-06-23T00:27:07.366Z,87.30
2018-06-23T00:29:35.702Z,87.40
2018-06-23T00:32:04.027Z,87.30
2018-06-23T00:34:32.357Z,87.30
2018-06-23T00:37:00.674Z,87.10
2018-06-23T00:39:29.051Z,87.10
2018-06-23T00:41:57.362Z,87.00
2018-06-23T00:44:25.726Z,86.90
2018-06-23T00:46:54.035Z,87.20
2018-06-23T00:49:22.389Z,87.30
2018-06-23T00:51:50.732Z,87.20
2018-06-23T00:54:19.106Z,87.40
2018-06-23T00:56:47.453Z,86.90
2018-06-23T00:59:27.018Z,86.90
2018-06-23T01:01:55.318Z,86.80
2018-06-23T01:04:23.661Z,87.20
2018-06-23T01:06:51.982Z,87.40
2018-06-23T01:09:20.310Z,87.30
2018-06-23T01:11:48.630Z,87.50
2018-06-23T01:14:16.966Z,87.30
2018-06-23T01:16:45.338Z,87.40
2018-06-23T01:19:13.651Z,87.90
2018-06-23T01:21:42.131Z,88.10
2018-06-23T01:24:10.446Z,87.90
2018-06-23T01:26:38.784Z,87.90
2018-06-23T01:29:07.197Z,87.90
2018-06-23T01:31:35.538Z,88.10
2018-06-23T01:34:03.852Z,88.30
2018-06-23T01:36:32.195Z,88.40
2018-06-23T01:39:00.506Z,88.50
2018-06-23T01:41:28.972Z,88.50
2018-06-23T01:43:57.299Z,88.40
2018-06-23T01:46:25.642Z,88.50
2018-06-23T01:48:53.954Z,88.90
2018-06-23T01:51:22.322Z,89.00
2018-06-23T01:53:50.650Z,88.80
2018-06-23T01:56:18.986Z,88.80
2018-06-23T01:58:47.334Z,89.00
2018-06-23T02:01:15.658Z,89.00
2018-06-23T02:03:44.581Z,89.10
2018-06-23T02:06:12.969Z,89.10
2018-06-23T02:08:41.248Z,89.10
2018-06-23T02:11:09.591Z,89.20
2018-06-23T02:13:37.907Z,89.10
2018-06-23T02:16:11.959Z,89.20
2018-06-23T02:18:45.518Z,89.50
2018-06-23T02:21:19.114Z,89.60
2018-06-23T02:23:52.730Z,89.70
2018-06-23T02:26:26.642Z,89.70
2018-06-23T02:29:00.470Z,89.80
2018-06-23T02:31:34.358Z,89.80
2018-06-23T02:34:08.118Z,89.70
2018-06-23T02:36:36.462Z,89.90
2018-06-23T02:39:07.339Z,89.80
2018-06-23T02:41:35.705Z,89.80
2018-06-23T02:44:04.031Z,90.10
2018-06-23T02:46:32.343Z,90.10
2018-06-23T02:49:00.673Z,90.20
2018-06-23T02:51:28.982Z,89.90
2018-06-23T02:53:57.327Z,90.10
2018-06-23T02:56:25.643Z,90.20
2018-06-23T02:58:53.982Z,90.20
2018-06-23T03:01:22.321Z,90.40
2018-06-23T03:03:50.715Z,90.50
2018-06-23T03:06:19.078Z,90.90
2018-06-23T03:08:47.423Z,90.60
2018-06-23T03:11:15.759Z,90.60
2018-06-23T03:16:12.248Z,90.80
2018-06-23T03:18:40.634Z,91.00
2018-06-23T03:21:08.965Z,90.60
2018-06-23T03:23:37.334Z,90.50
2018-06-23T03:26:05.714Z,90.60
2018-06-23T03:28:34.047Z,90.50
2018-06-23T03:31:02.366Z,90.50
2018-06-23T03:33:30.702Z,90.50
2018-06-23T03:35:59.022Z,90.80
2018-06-23T03:38:27.375Z,90.80
2018-06-23T03:40:55.710Z,90.70
2018-06-23T03:43:24.030Z,90.70
2018-06-23T03:45:52.370Z,90.70
2018-06-23T03:48:20.684Z,90.50
2018-06-23T03:50:49.020Z,90.80
2018-06-23T03:53:17.364Z,90.70
2018-06-23T03:55:45.700Z,90.80
2018-06-23T03:58:14.003Z,91.00
2018-06-23T04:00:47.733Z,91.30
2018-06-23T04:03:16.039Z,90.80
2018-06-23T04:05:45.150Z,90.70
2018-06-23T04:08:13.515Z,90.90
2018-06-23T04:10:41.941Z,91.00
2018-06-23T04:13:10.290Z,90.80
2018-06-23T04:15:38.639Z,90.80
2018-06-23T04:18:06.946Z,90.60
2018-06-23T04:20:35.270Z,90.20
2018-06-23T04:23:03.598Z,90.20
2018-06-23T04:25:31.942Z,89.80
2018-06-23T04:28:00.258Z,89.50
2018-06-23T04:30:28.614Z,89.10
2018-06-23T04:32:56.926Z,89.40
2018-06-23T04:35:25.258Z,89.70
2018-06-23T04:37:53.579Z,89.60
2018-06-23T04:40:21.897Z,89.70
2018-06-23T04:42:50.238Z,89.20
2018-06-23T04:45:18.546Z,89.20
2018-06-23T04:47:46.902Z,89.20
2018-06-23T04:50:15.267Z,89.20
2018-06-23T04:52:43.594Z,88.90
2018-06-23T04:55:11.943Z,88.90
2018-06-23T04:57:40.294Z,89.20
2018-06-23T05:00:08.626Z,89.00
2018-06-23T05:02:37.038Z,89.00
2018-06-23T05:05:05.383Z,88.80
2018-06-23T05:07:33.738Z,89.20
2018-06-23T05:10:02.047Z,88.60
2018-06-23T05:12:30.419Z,89.40
2018-06-23T05:14:58.730Z,89.20
2018-06-23T05:17:27.071Z,89.30
2018-06-23T05:19:55.411Z,89.50
2018-06-23T05:22:23.750Z,88.80
2018-06-23T05:24:52.073Z,88.40
2018-06-23T05:27:20.415Z,88.40
2018-06-23T05:29:48.730Z,88.50
2018-06-23T05:32:17.100Z,88.70
2018-06-23T05:34:45.505Z,87.90
2018-06-23T05:37:13.849Z,88.30
2018-06-23T05:39:42.162Z,88.40
2018-06-23T05:42:10.510Z,89.00
2018-06-23T05:44:38.861Z,88.60
2018-06-23T05:47:07.182Z,88.00
2018-06-23T05:49:35.498Z,88.30
2018-06-23T05:52:03.847Z,88.90
2018-06-23T05:54:32.176Z,88.90
2018-06-23T05:57:00.654Z,88.00
2018-06-23T05:59:28.983Z,87.70
2018-06-23T06:01:57.314Z,88.10
2018-06-23T06:04:25.642Z,88.10
2018-06-23T06:06:53.970Z,88.70
2018-06-23T06:09:22.298Z,88.70
2018-06-23T06:11:50.610Z,89.30
2018-06-23T06:14:18.938Z,88.30
2018-06-23T06:17:22.378Z,88.00
2018-06-23T06:19:52.629Z,87.70
2018-06-23T06:22:21.302Z,86.20
2018-06-23T06:24:49.635Z,87.00
2018-06-23T06:27:17.936Z,87.10
2018-06-23T06:29:46.326Z,87.90
2018-06-23T06:32:14.656Z,88.30
2018-06-23T06:34:42.978Z,88.50
2018-06-23T06:37:11.279Z,89.00
2018-06-23T06:39:40.060Z,87.90
2018-06-23T06:42:08.390Z,88.10
2018-06-23T06:44:36.800Z,87.60
2018-06-23T06:47:05.121Z,88.00
2018-06-23T06:49:33.473Z,88.00
2018-06-23T06:52:01.783Z,88.10
2018-06-23T06:54:30.210Z,87.10
2018-06-23T06:56:58.530Z,87.50
2018-06-23T06:59:26.923Z,87.60
2018-06-23T07:01:55.235Z,88.10
2018-06-23T07:04:23.566Z,88.40
2018-06-23T07:06:51.887Z,87.60
2018-06-23T07:09:20.227Z,87.90
2018-06-23T07:11:48.551Z,88.40
2018-06-23T07:14:16.897Z,88.30
2018-06-23T07:16:45.335Z,87.70
2018-06-23T07:19:13.687Z,88.10
2018-06-23T07:21:42.831Z,87.70
2018-06-23T07:24:11.274Z,87.80
2018-06-23T07:26:39.550Z,88.10
2018-06-23T07:31:36.294Z,88.10
2018-06-23T07:34:04.651Z,87.70
2018-06-23T07:36:33.675Z,87.90
2018-06-23T07:39:02.022Z,87.80
2018-06-23T07:41:30.365Z,87.90
2018-06-23T07:43:58.698Z,88.20
2018-06-23T07:46:27.030Z,89.00
2018-06-23T07:48:55.351Z,88.70
2018-06-23T07:51:24.020Z,88.30
2018-06-23T07:53:52.359Z,87.70
2018-06-23T07:56:21.960Z,88.10
2018-06-23T07:58:50.282Z,89.20
2018-06-23T08:01:18.627Z,90.20
2018-06-23T08:03:46.939Z,91.80
2018-06-23T08:06:15.274Z,92.90
2018-06-23T08:08:43.582Z,93.10
2018-06-23T08:11:11.954Z,93.30
2018-06-23T08:13:40.265Z,93.30
2018-06-23T08:16:08.982Z,93.50
2018-06-23T08:18:37.497Z,94.70
2018-06-23T08:21:05.847Z,96.00
2018-06-23T08:23:34.253Z,96.50
2018-06-23T08:26:03.170Z,95.60
2018-06-23T08:28:31.674Z,95.20
2018-06-23T08:31:00.431Z,94.40
2018-06-23T08:33:28.772Z,94.40
2018-06-23T08:35:57.107Z,93.80
2018-06-23T08:38:25.518Z,92.90
2018-06-23T08:40:54.104Z,92.40
2018-06-23T08:43:22.634Z,92.20
2018-06-23T08:45:51.235Z,92.30
2018-06-23T08:48:19.943Z,92.00
2018-06-23T08:50:48.254Z,91.80
2018-06-23T08:53:16.811Z,91.90
2018-06-23T08:55:45.151Z,89.90
2018-06-23T08:58:13.686Z,90.20
2018-06-23T09:00:42.019Z,90.10
2018-06-23T09:03:10.362Z,88.40
2018-06-23T09:05:38.692Z,88.00
2018-06-23T09:08:07.067Z,88.50
2018-06-23T09:10:35.424Z,86.30
2018-06-23T09:13:03.947Z,85.50
2018-06-23T09:15:32.279Z,85.10
2018-06-23T09:18:00.645Z,84.50
2018-06-23T09:20:29.008Z,84.00
2018-06-23T09:22:57.343Z,84.20
2018-06-23T09:25:25.673Z,83.20
2018-06-23T09:27:54.057Z,83.10
2018-06-23T09:30:22.405Z,83.20
2018-06-23T09:32:50.743Z,82.20
2018-06-23T09:35:19.095Z,83.10
2018-06-23T09:37:47.487Z,83.40
2018-06-23T09:40:15.827Z,83.60
2018-06-23T09:42:44.191Z,82.60
2018-06-23T09:45:12.535Z,82.50
2018-06-23T09:47:40.871Z,82.80
2018-06-23T09:50:09.222Z,83.10
2018-06-23T09:52:37.562Z,81.80
2018-06-23T09:55:05.886Z,82.30
2018-06-23T09:57:34.243Z,82.90
2018-06-23T10:00:02.592Z,82.00
2018-06-23T10:02:30.929Z,82.30
2018-06-23T10:04:59.271Z,81.40
2018-06-23T10:07:27.606Z,79.40
2018-06-23T10:09:55.934Z,79.00
2018-06-23T10:12:24.239Z,77.30
2018-06-23T10:14:52.595Z,78.10
2018-06-23T10:17:20.918Z,77.40
2018-06-23T10:19:49.272Z,76.50
2018-06-23T10:22:17.583Z,77.10
2018-06-23T10:24:45.966Z,76.10
2018-06-23T10:27:14.280Z,76.90
2018-06-23T10:29:42.706Z,76.60
2018-06-23T10:32:11.027Z,76.60
2018-06-23T10:34:39.362Z,76.90
2018-06-23T10:37:07.674Z,77.60
2018-06-23T10:39:36.002Z,79.00
2018-06-23T10:42:04.330Z,78.30
2018-06-23T10:44:32.664Z,79.10
2018-06-23T10:47:01.107Z,79.70
2018-06-23T10:49:29.435Z,80.50
2018-06-23T10:51:57.884Z,81.10
2018-06-23T10:54:26.353Z,81.40
2018-06-23T10:56:54.762Z,80.40
2018-06-23T10:59:23.102Z,80.60
2018-06-23T11:01:51.423Z,80.80
2018-06-23T11:04:19.766Z,81.00
2018-06-23T11:09:16.130Z,81.10
2018-06-23T11:11:44.466Z,80.30
2018-06-23T11:14:12.780Z,80.30
2018-06-23T11:16:41.110Z,80.00
2018-06-23T11:19:09.423Z,79.90
2018-06-23T11:21:37.763Z,80.10
2018-06-23T11:24:06.083Z,80.60
2018-06-23T11:26:34.419Z,80.10
2018-06-23T11:29:02.735Z,79.10
2018-06-23T11:31:31.103Z,79.20
2018-06-23T11:33:59.421Z,79.00
2018-06-23T11:36:28.115Z,79.00
2018-06-23T11:38:56.434Z,78.20
2018-06-23T11:43:53.931Z,78.40
2018-06-23T11:46:22.345Z,78.40
2018-06-23T11:48:50.659Z,77.90
2018-06-23T11:51:18.993Z,78.20
2018-06-23T11:53:47.338Z,78.20
2018-06-23T11:56:15.674Z,78.60
2018-06-23T11:58:44.164Z,79.20
2018-06-23T12:01:12.519Z,79.20
2018-06-23T12:03:40.838Z,77.60
2018-06-23T12:06:09.155Z,77.50
2018-06-23T12:08:37.514Z,77.40
2018-06-23T12:11:05.991Z,76.50
2018-06-23T12:13:34.338Z,77.10
2018-06-23T12:16:02.655Z,77.20
2018-06-23T12:18:30.988Z,76.70
2018-06-23T12:20:59.514Z,76.60
2018-06-23T12:23:27.850Z,76.50
2018-06-23T12:25:56.175Z,76.80
2018-06-23T12:28:24.502Z,75.20
2018-06-23T12:30:52.827Z,73.80
2018-06-23T12:33:21.147Z,74.60
2018-06-23T12:35:49.494Z,74.80
2018-06-23T12:38:17.826Z,75.20
2018-06-23T12:40:46.154Z,74.90
2018-06-23T12:43:14.536Z,74.80
2018-06-23T12:48:10.968Z,74.20
2018-06-23T12:50:39.292Z,72.90
2018-06-23T12:53:07.654Z,73.80
2018-06-23T12:55:36.000Z,73.80
2018-06-23T12:58:04.395Z,73.90
2018-06-23T13:00:32.699Z,74.50
2018-06-23T13:03:00.995Z,74.00
2018-06-23T13:05:29.544Z,74.90
2018-06-23T13:07:58.008Z,73.30
2018-06-23T13:10:26.362Z,73.60
2018-06-23T13:12:54.740Z,72.50
2018-06-23T13:15:23.087Z,73.10
2018-06-23T13:17:51.407Z,72.70
2018-06-23T13:20:19.726Z,72.70
2018-06-23T13:22:48.043Z,72.80
2018-06-23T13:25:16.373Z,72.20
2018-06-23T13:27:44.723Z,72.40
2018-06-23T13:30:13.067Z,73.10
2018-06-23T13:32:41.374Z,71.20
2018-06-23T13:35:09.736Z,73.00
2018-06-23T13:37:38.049Z,72.20
2018-06-23T13:40:06.595Z,71.40
2018-06-23T13:42:34.931Z,72.90
2018-06-23T13:45:03.302Z,72.20
2018-06-23T13:47:31.823Z,73.60
2018-06-23T13:50:00.167Z,73.70
2018-06-23T13:54:56.607Z,72.70
2018-06-23T13:57:25.309Z,71.40
2018-06-23T13:59:53.630Z,72.70
2018-06-23T14:02:21.942Z,73.00
2018-06-23T14:04:50.265Z,73.10
2018-06-23T14:07:18.586Z,74.20
2018-06-23T14:09:46.927Z,74.70
2018-06-23T14:12:15.235Z,73.70
2018-06-23T14:14:43.570Z,74.20
2018-06-23T14:19:40.223Z,74.20
2018-06-23T14:22:08.555Z,73.40
2018-06-23T14:27:04.959Z,73.40
2018-06-23T14:29:33.338Z,72.70
2018-06-23T14:32:01.950Z,72.40
2018-06-23T14:34:30.068Z,72.40
2018-06-23T14:36:58.386Z,73.20
2018-06-23T14:39:26.717Z,73.00
2018-06-23T14:41:55.051Z,73.10
2018-06-23T14:44:23.378Z,72.90
2018-06-23T14:46:51.718Z,73.60
2018-06-23T14:49:20.030Z,74.60
2018-06-23T14:51:48.370Z,75.00
2018-06-23T14:54:16.694Z,74.80
2018-06-23T14:56:45.031Z,74.60
2018-06-23T14:59:13.371Z,74.60
2018-06-23T15:01:41.699Z,75.10
2018-06-23T15:04:10.010Z,75.20
2018-06-23T15:06:38.362Z,75.30
2018-06-23T15:09:18.102Z,74.90
2018-06-23T15:11:57.767Z,75.20
2018-06-23T15:14:26.075Z,75.40
2018-06-23T15:16:54.403Z,75.70
2018-06-23T15:19:22.714Z,75.20
2018-06-23T15:21:51.053Z,74.70
2018-06-23T15:24:19.351Z,75.00
2018-06-23T15:26:47.670Z,74.00
2018-06-23T15:29:15.971Z,74.10
2018-06-23T15:31:44.319Z,74.70
2018-06-23T15:34:12.658Z,73.70
2018-06-23T15:36:40.995Z,73.40
2018-06-23T15:39:09.979Z,73.60
2018-06-23T15:41:38.442Z,73.50
2018-06-23T15:44:06.789Z,74.40
2018-06-23T15:46:35.115Z,74.00
2018-06-23T15:49:03.434Z,73.50
2018-06-23T15:51:31.768Z,73.00
2018-06-23T15:54:00.125Z,73.00
2018-06-23T15:56:28.482Z,73.10
2018-06-23T15:58:56.794Z,73.60
2018-06-23T16:01:25.132Z,73.40
2018-06-23T16:03:53.481Z,73.50
2018-06-23T16:06:22.020Z,73.40
2018-06-23T16:08:50.387Z,72.90
2018-06-23T16:11:18.691Z,73.40
2018-06-23T16:13:46.994Z,73.80
2018-06-23T16:16:15.325Z,73.20
2018-06-23T16:18:43.783Z,73.70
2018-06-23T16:21:12.149Z,73.40
2018-06-23T16:23:40.497Z,73.60
2018-06-23T16:26:08.870Z,73.70
2018-06-23T16:28:37.225Z,74.00
2018-06-23T16:31:05.742Z,73.80
2018-06-23T16:33:34.082Z,74.20
2018-06-23T16:36:02.412Z,73.40
2018-06-23T16:38:30.771Z,73.50
2018-06-23T16:40:59.081Z,73.30
2018-06-23T16:43:27.416Z,73.80
2018-06-23T16:45:55.799Z,72.70
2018-06-23T16:48:24.158Z,73.30
2018-06-23T16:50:52.490Z,73.50
2018-06-23T16:53:20.874Z,73.70
2018-06-23T16:55:49.231Z,74.20
2018-06-23T16:58:17.567Z,74.50
2018-06-23T17:00:45.907Z,74.20
2018-06-23T17:03:14.272Z,73.60
2018-06-23T17:05:42.587Z,72.60
2018-06-23T17:08:11.065Z,73.20
2018-06-23T17:10:39.545Z,73.30
2018-06-23T17:13:07.895Z,72.90
2018-06-23T17:15:36.247Z,72.20
2018-06-23T17:18:04.579Z,71.50
2018-06-23T17:20:32.908Z,71.70
2018-06-23T17:23:01.246Z,70.90
2018-06-23T17:25:29.562Z,70.90
2018-06-23T17:27:58.031Z,70.20
2018-06-23T17:30:26.366Z,70.60
2018-06-23T17:32:54.694Z,71.00
2018-06-23T17:35:23.092Z,71.50
2018-06-23T17:37:51.531Z,71.90
2018-06-23T17:40:19.849Z,72.10
2018-06-23T17:42:48.195Z,71.70
2018-06-23T17:45:16.551Z,71.80
2018-06-23T17:47:44.882Z,71.70
2018-06-23T17:50:13.818Z,71.80
2018-06-23T17:52:42.553Z,72.40
2018-06-23T17:55:10.910Z,72.30
2018-06-23T17:57:39.382Z,72.50
2018-06-23T18:00:08.386Z,72.50
2018-06-23T18:02:36.942Z,73.00
2018-06-23T18:07:34.223Z,73.00
2018-06-23T18:10:02.561Z,72.80
2018-06-23T18:12:30.956Z,73.00
2018-06-23T18:14:59.416Z,72.60
2018-06-23T18:17:27.755Z,72.60
2018-06-23T18:19:56.090Z,72.90
2018-06-23T18:22:24.411Z,72.70
2018-06-23T18:24:52.753Z,72.90
2018-06-23T18:27:21.112Z,72.90
2018-06-23T18:29:49.476Z,73.30
2018-06-23T18:32:17.783Z,73.00
2018-06-23T18:34:46.230Z,73.70
2018-06-23T18:37:14.588Z,74.00
2018-06-23T18:39:42.919Z,74.30
2018-06-23T18:42:11.264Z,73.00
2018-06-23T18:44:39.601Z,71.90
2018-06-23T18:47:07.942Z,73.00
2018-06-23T18:49:36.411Z,74.00
2018-06-23T18:52:04.998Z,72.90
2018-06-23T18:54:33.431Z,72.50
2018-06-23T18:57:01.835Z,72.70
2018-06-23T18:59:30.222Z,73.00
2018-06-23T19:01:58.610Z,73.40
2018-06-23T19:04:26.980Z,74.00
2018-06-23T19:06:55.294Z,73.90
2018-06-23T19:09:23.854Z,73.70
2018-06-23T19:11:51.966Z,73.80
2018-06-23T19:14:20.397Z,74.00
2018-06-23T19:16:48.795Z,74.30
2018-06-23T19:19:17.150Z,74.70
2018-06-23T19:21:45.462Z,74.70
2018-06-23T19:24:13.802Z,74.90
2018-06-23T19:26:42.123Z,74.80
2018-06-23T19:29:10.455Z,75.20
2018-06-23T19:31:38.855Z,75.30
2018-06-23T19:34:07.214Z,75.60
2018-06-23T19:36:35.659Z,76.60
2018-06-23T19:39:05.829Z,75.60
2018-06-23T19:41:34.143Z,76.70
2018-06-23T19:44:02.597Z,77.20
2018-06-23T19:46:30.860Z,76.60
2018-06-23T19:48:59.230Z,77.00
2018-06-23T19:51:27.549Z,77.50
2018-06-23T19:53:55.961Z,77.50
2018-06-23T19:56:24.278Z,77.50
2018-06-23T19:58:52.621Z,77.50
2018-06-23T20:01:20.990Z,77.40
2018-06-23T20:03:49.317Z,77.60
2018-06-23T20:06:17.646Z,77.70
2018-06-23T20:08:45.979Z,78.40
2018-06-23T20:11:14.307Z,78.70
2018-06-23T20:13:42.670Z,78.70
2018-06-23T20:18:39.064Z,78.90
2018-06-23T20:21:07.414Z,79.30
2018-06-23T20:23:35.723Z,79.70
2018-06-23T20:26:04.074Z,80.10
2018-06-23T20:28:32.470Z,80.50
2018-06-23T20:31:00.887Z,80.80
2018-06-23T20:33:29.202Z,81.50
2018-06-23T20:35:57.550Z,82.50
2018-06-23T20:38:25.888Z,82.80
2018-06-23T20:40:54.220Z,83.00
2018-06-23T20:43:22.535Z,83.00
2018-06-23T20:48:18.950Z,83.30
2018-06-23T20:50:47.378Z,83.30
2018-06-23T20:53:15.686Z,83.20
2018-06-23T20:55:44.042Z,83.60
2018-06-23T20:58:12.370Z,83.60
2018-06-23T21:00:40.698Z,83.30
2018-06-23T21:03:09.052Z,83.40
2018-06-23T21:05:37.419Z,83.50
2018-06-23T21:08:05.772Z,83.80
2018-06-23T21:10:42.459Z,83.80
2018-06-23T21:13:11.170Z,84.10
2018-06-23T21:15:39.498Z,84.10
2018-06-23T21:18:08.156Z,84.40
2018-06-23T21:20:36.509Z,84.70
2018-06-23T21:23:04.886Z,84.20
2018-06-23T21:25:33.254Z,84.80
2018-06-23T21:28:01.626Z,84.90
2018-06-23T21:30:30.031Z,84.80
2018-06-23T21:32:58.351Z,84.40
2018-06-23T21:35:26.698Z,84.50
2018-06-23T21:37:55.066Z,84.80
2018-06-23T21:40:23.419Z,84.70
2018-06-23T21:42:51.811Z,84.90
2018-06-23T21:45:20.362Z,84.90
2018-06-23T21:47:48.703Z,84.60
2018-06-23T21:50:17.197Z,85.00
2018-06-23T21:52:45.583Z,85.30
2018-06-23T21:55:13.940Z,85.40
2018-06-23T21:57:42.281Z,85.30
2018-06-23T22:00:37.951Z,85.40
2018-06-23T22:03:07.562Z,85.60
2018-06-23T22:05:36.280Z,85.80
2018-06-23T22:08:05.162Z,85.90
2018-06-23T22:10:33.499Z,86.00
2018-06-23T22:13:01.896Z,86.10
2018-06-23T22:15:30.307Z,86.10
2018-06-23T22:17:58.663Z,86.00
2018-06-23T22:20:26.991Z,86.10
2018-06-23T22:22:55.324Z,86.20
2018-06-23T22:27:52.058Z,86.70
2018-06-23T22:30:21.298Z,86.80
2018-06-23T22:32:49.654Z,86.70
2018-06-23T22:35:18.026Z,86.70
2018-06-23T22:37:46.402Z,86.70
2018-06-23T22:40:14.723Z,87.40
2018-06-23T22:42:43.054Z,88.10
2018-06-23T22:45:11.382Z,88.20
2018-06-23T22:47:39.721Z,87.90
2018-06-23T22:50:08.700Z,88.10
2018-06-23T22:52:37.331Z,88.30
2018-06-23T22:55:06.017Z,88.00
2018-06-23T22:57:34.351Z,87.80
2018-06-23T23:00:02.696Z,87.60
2018-06-23T23:02:31.043Z,87.90
2018-06-23T23:04:59.374Z,87.50
2018-06-23T23:07:27.715Z,87.60
2018-06-23T23:09:56.038Z,87.50
2018-06-23T23:12:24.391Z,87.50
2018-06-23T23:14:52.727Z,87.60
2018-06-23T23:17:21.070Z,87.70
2018-06-23T23:19:49.403Z,87.80
2018-06-23T23:22:17.748Z,87.90
2018-06-23T23:24:46.081Z,87.70
2018-06-23T23:27:14.450Z,87.40
2018-06-23T23:29:42.784Z,87.70
2018-06-23T23:32:11.126Z,88.20
2018-06-23T23:34:39.447Z,88.40
2018-06-23T23:37:07.811Z,88.30
2018-06-23T23:39:36.137Z,88.30
2018-06-23T23:42:04.511Z,88.20
2018-06-23T23:44:32.859Z,88.20
2018-06-23T23:47:01.254Z,88.40
2018-06-23T23:49:29.587Z,88.20
2018-06-23T23:51:57.965Z,88.10
2018-06-23T23:54:26.343Z,89.30
2018-06-23T23:56:55.503Z,89.90
2018-06-23T23:59:23.826Z,90.70
